Terminal Aerodrome Forecast
Issued by NWS

Home | Current Version | Previous Version | Text Only | Print | Product List | Glossary On
Versions: 1 2 3 4 5 6 7 8 9 10 11 12 13 14 15
000
FTUS46 KSGX 030520
TAFONT
TAF
KONT 030520Z 0306/0412 27009KT P6SM FEW150 SCT250
     FM030800 VRB04KT P6SM OVC018
     FM031700 VRB05KT P6SM FEW020 SCT150
     FM032100 25012KT P6SM SCT150
     FM040500 25006KT P6SM SKC
     FM040700 23004KT P6SM BKN018=

USA.gov is the U.S. government's official web portal to all federal, state and local government web resources and services.